Time;durP1;ratioP1;P1;durP2;ratioP2;P2;SDS_P1;SDS_P2;PMS_P1;PMS_P2;Temp;Humidity;BMP_temperature;BMP_pressure;BME280_temperature;BME280_humidity;BME280_pressure;Samples;Min_cycle;Max_cycle;Signal;HPM_P1;HPM_P2
2021/09/03 00:00:40;;;;;;;9.80;2.83;;;15.10;85.50;;;;;;4874755;29;20503;-66
2021/09/03 00:03:07;;;;;;;8.70;2.05;;;15.10;85.50;;;;;;4874975;29;20025;-66
2021/09/03 00:05:35;;;;;;;10.82;1.67;;;15.10;85.70;;;;;;4878229;29;20025;-66
2021/09/03 00:08:02;;;;;;;12.57;2.78;;;15.10;86.00;;;;;;4877055;29;20477;-65
2021/09/03 00:10:28;;;;;;;9.98;2.63;;;15.10;86.00;;;;;;4878146;29;20489;-65
2021/09/03 00:12:55;;;;;;;8.07;2.30;;;15.10;86.00;;;;;;4877365;29;20025;-66
2021/09/03 00:15:21;;;;;;;9.45;2.38;;;15.10;85.70;;;;;;4875411;29;20081;-67
2021/09/03 00:17:48;;;;;;;6.63;1.80;;;15.10;85.60;;;;;;4878223;29;20040;-66
2021/09/03 00:20:15;;;;;;;8.68;2.22;;;15.10;85.50;;;;;;4876575;29;20067;-67
2021/09/03 00:22:43;;;;;;;12.98;3.33;;;15.10;85.80;;;;;;4877791;29;20382;-66
2021/09/03 00:25:11;;;;;;;7.57;1.98;;;15.10;85.80;;;;;;4876664;29;20025;-66
2021/09/03 00:27:38;;;;;;;12.18;2.47;;;15.10;85.90;;;;;;4877695;29;20107;-67
2021/09/03 00:30:06;;;;;;;5.10;2.25;;;15.10;85.90;;;;;;4877080;29;20017;-66
2021/09/03 00:32:33;;;;;;;13.65;2.58;;;15.10;85.90;;;;;;4877189;29;20060;-66
2021/09/03 00:35:00;;;;;;;9.65;2.13;;;15.10;86.00;;;;;;4877421;29;20021;-67
2021/09/03 00:37:26;;;;;;;11.55;2.05;;;15.10;86.20;;;;;;4876582;29;20508;-67
2021/09/03 00:39:53;;;;;;;7.93;2.42;;;15.10;86.20;;;;;;4877460;29;20087;-66
2021/09/03 00:42:19;;;;;;;6.88;2.25;;;15.20;86.10;;;;;;4876212;29;20030;-66
2021/09/03 00:44:46;;;;;;;11.75;2.92;;;15.10;86.00;;;;;;4877350;29;20431;-67
2021/09/03 00:47:12;;;;;;;8.82;2.03;;;15.10;86.00;;;;;;4876401;29;20017;-66
2021/09/03 00:49:39;;;;;;;11.98;2.45;;;15.10;85.70;;;;;;4876997;29;20021;-68
2021/09/03 00:52:07;;;;;;;11.10;3.03;;;15.10;85.40;;;;;;4877052;29;20029;-66
2021/09/03 00:54:33;;;;;;;7.97;1.60;;;15.10;85.20;;;;;;4876446;29;20021;-66
2021/09/03 00:57:00;;;;;;;6.50;2.08;;;15.10;85.20;;;;;;4877118;29;20025;-66
2021/09/03 00:59:27;;;;;;;9.52;1.70;;;15.00;85.20;;;;;;4876217;29;20365;-67
2021/09/03 01:01:54;;;;;;;10.50;2.03;;;15.10;85.20;;;;;;4877156;29;20033;-66
2021/09/03 01:04:20;;;;;;;12.38;3.38;;;15.10;85.00;;;;;;4875912;29;20021;-66
2021/09/03 01:06:47;;;;;;;8.68;3.33;;;15.10;84.90;;;;;;4876976;29;20452;-65
2021/09/03 01:09:13;;;;;;;9.63;2.90;;;15.10;85.10;;;;;;4876638;29;20017;-66
2021/09/03 01:11:40;;;;;;;8.57;2.83;;;15.00;85.10;;;;;;4876438;29;20730;-65
2021/09/03 01:14:06;;;;;;;9.40;2.20;;;15.10;85.30;;;;;;4876103;29;20108;-65
2021/09/03 01:16:33;;;;;;;17.52;3.55;;;15.10;85.20;;;;;;4876035;29;20036;-66
2021/09/03 01:19:00;;;;;;;12.25;1.85;;;15.10;85.10;;;;;;4876758;29;20500;-66
2021/09/03 01:21:27;;;;;;;8.65;2.17;;;15.10;85.00;;;;;;4875935;29;20503;-66
2021/09/03 01:23:54;;;;;;;11.70;2.97;;;15.00;84.80;;;;;;4876839;29;20025;-66
2021/09/03 01:26:20;;;;;;;17.40;4.13;;;15.10;84.80;;;;;;4876220;29;20025;-65
2021/09/03 01:28:48;;;;;;;11.10;2.88;;;15.10;84.80;;;;;;4876379;29;20017;-66
2021/09/03 01:31:14;;;;;;;10.68;3.78;;;15.10;85.30;;;;;;4876614;29;20024;-66
2021/09/03 01:33:41;;;;;;;7.25;2.38;;;15.10;84.50;;;;;;4875609;29;20088;-66
2021/09/03 01:36:07;;;;;;;7.05;1.80;;;15.10;84.30;;;;;;4876566;29;20519;-66
2021/09/03 01:38:34;;;;;;;12.32;2.67;;;15.10;84.20;;;;;;4875305;29;20045;-66
2021/09/03 01:41:01;;;;;;;10.88;2.83;;;15.10;84.40;;;;;;4876259;29;20041;-66
2021/09/03 01:43:27;;;;;;;7.85;2.65;;;15.00;84.40;;;;;;4875640;29;20113;-66
2021/09/03 01:45:54;;;;;;;10.98;3.08;;;15.10;84.20;;;;;;4876309;29;20032;-66
2021/09/03 01:48:20;;;;;;;8.85;2.60;;;15.10;84.10;;;;;;4876067;29;20036;-66
2021/09/03 01:50:47;;;;;;;15.90;3.83;;;15.00;84.10;;;;;;4875399;29;20032;-66
2021/09/03 01:53:14;;;;;;;9.15;2.33;;;15.00;83.90;;;;;;4876318;29;20025;-66
2021/09/03 01:55:40;;;;;;;9.38;2.80;;;15.00;83.80;;;;;;4875090;29;20013;-66
2021/09/03 01:58:06;;;;;;;11.15;4.03;;;15.00;84.00;;;;;;4876202;29;20032;-65
2021/09/03 02:00:33;;;;;;;10.63;3.05;;;15.00;83.80;;;;;;4875117;29;20531;-66
2021/09/03 02:02:59;;;;;;;12.43;2.40;;;15.00;83.80;;;;;;4876090;29;20021;-66
2021/09/03 02:05:26;;;;;;;11.45;2.80;;;15.00;84.10;;;;;;4875586;29;20355;-65
2021/09/03 02:07:52;;;;;;;10.98;2.60;;;15.00;84.10;;;;;;4875693;29;20025;-66
2021/09/03 02:10:19;;;;;;;12.60;3.33;;;15.00;84.00;;;;;;4876015;29;20027;-66
2021/09/03 02:12:45;;;;;;;11.90;2.50;;;15.00;84.10;;;;;;4874982;29;20068;-65
2021/09/03 02:15:12;;;;;;;14.45;2.15;;;15.00;84.10;;;;;;4875954;29;20029;-66
2021/09/03 02:17:38;;;;;;;6.90;2.00;;;15.00;84.20;;;;;;4874967;29;20027;-67
2021/09/03 02:20:06;;;;;;;11.65;3.38;;;15.10;84.40;;;;;;4875790;29;20036;-66
2021/09/03 02:22:32;;;;;;;15.13;4.88;;;15.00;83.90;;;;;;4875243;29;20036;-66
2021/09/03 02:24:59;;;;;;;8.13;2.00;;;15.00;83.80;;;;;;4875097;29;20552;-66
2021/09/03 02:27:25;;;;;;;6.80;2.78;;;15.00;84.50;;;;;;4875689;29;20104;-66
2021/09/03 02:29:52;;;;;;;11.32;2.47;;;15.00;83.90;;;;;;4874579;29;20108;-65
2021/09/03 02:32:20;;;;;;;8.45;2.70;;;15.00;83.90;;;;;;4875614;29;20029;-66
2021/09/03 02:34:47;;;;;;;6.72;1.70;;;15.00;83.80;;;;;;4874492;29;20115;-66
2021/09/03 02:37:14;;;;;;;5.55;2.05;;;15.00;83.70;;;;;;4875609;29;20103;-67
2021/09/03 02:39:41;;;;;;;10.73;2.20;;;15.00;83.70;;;;;;4874669;29;20657;-66
2021/09/03 02:42:07;;;;;;;9.13;2.90;;;15.10;83.80;;;;;;4875254;29;20025;-67
2021/09/03 02:44:34;;;;;;;12.93;3.05;;;15.00;83.60;;;;;;4875338;29;20029;-67
2021/09/03 02:47:01;;;;;;;10.18;2.90;;;15.10;83.60;;;;;;4874616;29;20025;-66
2021/09/03 02:49:27;;;;;;;4.20;2.15;;;15.00;83.70;;;;;;4875374;29;20024;-66
2021/09/03 02:51:53;;;;;;;10.68;2.20;;;15.00;83.90;;;;;;4874368;29;20096;-67
2021/09/03 02:54:20;;;;;;;6.20;3.15;;;15.00;84.20;;;;;;4875095;29;20401;-67
2021/09/03 02:56:46;;;;;;;11.85;3.30;;;15.00;84.30;;;;;;4874369;29;20101;-67
2021/09/03 02:59:13;;;;;;;12.32;3.08;;;15.00;84.40;;;;;;4875177;29;20456;-67
2021/09/03 03:01:39;;;;;;;9.80;2.30;;;15.00;84.30;;;;;;4875359;29;20477;-67
2021/09/03 03:04:06;;;;;;;13.98;2.72;;;15.00;84.20;;;;;;4874440;29;20499;-67
2021/09/03 03:06:32;;;;;;;6.80;1.92;;;15.00;84.30;;;;;;4875225;29;20028;-68
2021/09/03 03:08:59;;;;;;;9.07;2.30;;;14.90;84.20;;;;;;4874098;29;20076;-66
2021/09/03 03:11:25;;;;;;;8.20;1.95;;;15.00;84.20;;;;;;4875264;29;20499;-66
2021/09/03 03:14:01;;;;;;;7.05;2.05;;;15.00;84.40;;;;;;4873877;29;20040;-67
2021/09/03 03:16:28;;;;;;;10.27;3.13;;;15.00;84.80;;;;;;4874980;29;20413;-68
2021/09/03 03:18:54;;;;;;;8.13;2.17;;;15.00;85.00;;;;;;4874838;29;20025;-68
2021/09/03 03:21:21;;;;;;;4.72;1.80;;;15.00;84.90;;;;;;4874068;29;20093;-66
2021/09/03 03:23:47;;;;;;;6.45;2.08;;;15.00;85.30;;;;;;4874935;29;20108;-66
2021/09/03 03:26:14;;;;;;;12.43;3.15;;;15.00;85.30;;;;;;4874219;29;20544;-66
2021/09/03 03:28:40;;;;;;;17.08;3.88;;;15.00;85.40;;;;;;4875016;29;20040;-65
2021/09/03 03:31:07;;;;;;;9.30;2.10;;;14.90;85.90;;;;;;4874002;29;20473;-67
2021/09/03 03:33:33;;;;;;;8.80;2.50;;;14.90;86.30;;;;;;4875055;29;20576;-67
2021/09/03 03:36:00;;;;;;;7.25;2.63;;;14.90;86.10;;;;;;4874738;29;20369;-66
2021/09/03 03:38:26;;;;;;;10.18;2.22;;;14.90;86.20;;;;;;4876190;29;20400;-66
2021/09/03 03:40:53;;;;;;;7.00;2.25;;;14.90;86.40;;;;;;4878632;29;20036;-66
2021/09/03 03:43:19;;;;;;;8.10;3.28;;;14.90;86.70;;;;;;4877252;29;20029;-67
2021/09/03 03:45:45;;;;;;;6.35;2.80;;;14.80;86.50;;;;;;4874557;29;20082;-65
2021/09/03 03:48:12;;;;;;;11.43;3.95;;;14.80;86.70;;;;;;4868488;29;20036;-66
2021/09/03 03:50:38;;;;;;;7.90;1.83;;;14.90;86.90;;;;;;4868530;29;20065;-67
2021/09/03 03:53:05;;;;;;;11.40;2.42;;;14.90;86.90;;;;;;4869273;29;20021;-65
2021/09/03 03:55:31;;;;;;;73.25;51.67;;;14.90;86.80;;;;;;4869065;29;20034;-63
2021/09/03 03:57:58;;;;;;;22.38;14.07;;;14.90;86.80;;;;;;4868187;29;20374;-64
2021/09/03 04:00:24;;;;;;;30.58;17.70;;;14.90;86.60;;;;;;4869592;29;20083;-66
2021/09/03 04:02:51;;;;;;;11.07;4.75;;;14.90;86.50;;;;;;4867409;29;20467;-65
2021/09/03 04:05:17;;;;;;;10.65;2.88;;;14.90;86.50;;;;;;4869893;29;20033;-64
2021/09/03 04:07:44;;;;;;;9.73;3.03;;;14.90;86.50;;;;;;4876261;29;20029;-65
2021/09/03 04:10:11;;;;;;;10.20;3.33;;;14.90;86.80;;;;;;4873416;29;20125;-67
2021/09/03 04:12:37;;;;;;;9.45;2.17;;;14.80;86.80;;;;;;4877951;29;20385;-68
2021/09/03 04:15:04;;;;;;;8.00;2.50;;;14.80;86.80;;;;;;4874319;29;20031;-69
2021/09/03 04:17:31;;;;;;;6.90;3.30;;;14.80;86.80;;;;;;4874418;29;20060;-67
2021/09/03 04:19:57;;;;;;;69.95;57.38;;;14.80;87.00;;;;;;4877875;29;20033;-65
2021/09/03 04:22:23;;;;;;;6.10;4.85;;;14.80;87.10;;;;;;4875370;29;20021;-66
2021/09/03 04:24:50;;;;;;;9.68;2.80;;;14.70;87.60;;;;;;4858654;29;20077;-66
2021/09/03 04:27:16;;;;;;;6.20;2.22;;;14.70;87.90;;;;;;4856002;29;20029;-67
2021/09/03 04:29:43;;;;;;;8.02;1.90;;;14.70;88.20;;;;;;4873093;29;20013;-67
2021/09/03 04:32:09;;;;;;;10.98;1.70;;;14.70;88.30;;;;;;4873486;29;20477;-68
2021/09/03 04:34:36;;;;;;;8.63;2.75;;;14.70;88.20;;;;;;4873510;29;20078;-67
2021/09/03 04:37:02;;;;;;;7.85;3.40;;;14.70;88.20;;;;;;4875391;29;20025;-67
2021/09/03 04:39:29;;;;;;;8.75;2.55;;;14.70;88.10;;;;;;4875539;29;20120;-67
2021/09/03 04:41:55;;;;;;;9.00;3.25;;;14.70;88.00;;;;;;4871486;29;20065;-67
2021/09/03 04:44:22;;;;;;;9.35;2.60;;;14.60;88.10;;;;;;4872993;29;20041;-66
2021/09/03 04:46:48;;;;;;;7.20;2.05;;;14.60;88.20;;;;;;4875305;29;20082;-71
2021/09/03 04:49:15;;;;;;;10.18;1.92;;;14.60;87.90;;;;;;4875187;29;20025;-66
2021/09/03 04:51:41;;;;;;;13.98;2.15;;;14.60;87.80;;;;;;4874582;29;20021;-68
2021/09/03 04:54:08;;;;;;;8.55;1.83;;;14.60;87.80;;;;;;4877854;29;20025;-68
2021/09/03 04:56:35;;;;;;;11.45;2.97;;;14.60;87.80;;;;;;4872837;29;20121;-67
2021/09/03 04:59:02;;;;;;;6.13;1.80;;;14.60;87.60;;;;;;4875112;29;20057;-67
2021/09/03 05:01:28;;;;;;;12.90;2.63;;;14.50;87.60;;;;;;4873872;29;20139;-67
2021/09/03 05:03:55;;;;;;;7.55;2.40;;;14.50;87.50;;;;;;4875273;29;20032;-67
2021/09/03 05:06:21;;;;;;;5.65;1.30;;;14.50;87.50;;;;;;4874960;29;20037;-67
2021/09/03 05:08:48;;;;;;;3.20;1.10;;;14.50;87.50;;;;;;4872275;29;20022;-67
2021/09/03 05:11:14;;;;;;;6.90;2.55;;;14.50;87.60;;;;;;4869269;29;20060;-67
2021/09/03 05:13:41;;;;;;;9.02;1.38;;;14.50;87.60;;;;;;4869919;29;20009;-67
2021/09/03 05:16:07;;;;;;;10.43;1.77;;;14.40;87.50;;;;;;4872204;29;20021;-68
2021/09/03 05:18:34;;;;;;;7.43;1.75;;;14.40;87.50;;;;;;4870236;29;20052;-68
2021/09/03 05:21:02;;;;;;;11.82;1.98;;;14.40;87.70;;;;;;4871425;29;20556;-67
2021/09/03 05:23:29;;;;;;;7.95;3.08;;;14.40;88.10;;;;;;4868466;29;20042;-68
2021/09/03 05:25:55;;;;;;;10.63;2.83;;;14.40;88.30;;;;;;4871349;29;20053;-68
2021/09/03 05:28:22;;;;;;;7.55;2.60;;;14.40;88.60;;;;;;4871027;29;20025;-68
2021/09/03 05:30:48;;;;;;;7.90;2.05;;;14.40;89.00;;;;;;4870639;29;20022;-68
2021/09/03 05:33:14;;;;;;;6.93;1.75;;;14.40;89.00;;;;;;4869948;29;20033;-68
2021/09/03 05:35:41;;;;;;;6.03;1.40;;;14.40;89.10;;;;;;4870764;29;20017;-68
2021/09/03 05:38:07;;;;;;;13.65;2.72;;;14.40;89.20;;;;;;4872519;29;20048;-68
2021/09/03 05:40:35;;;;;;;7.45;1.50;;;14.40;89.30;;;;;;4870354;29;20120;-68
2021/09/03 05:43:01;;;;;;;7.88;1.58;;;14.40;89.50;;;;;;4870575;29;20096;-68
2021/09/03 05:45:28;;;;;;;7.20;1.63;;;14.40;89.70;;;;;;4875074;29;20080;-68
2021/09/03 05:47:54;;;;;;;6.20;2.15;;;14.40;89.90;;;;;;4874817;29;20029;-68
2021/09/03 05:50:21;;;;;;;10.75;1.38;;;14.40;90.00;;;;;;4874996;29;20023;-68
2021/09/03 05:52:48;;;;;;;5.60;1.60;;;14.40;90.00;;;;;;4875301;29;20668;-68
2021/09/03 05:55:14;;;;;;;8.98;1.83;;;14.50;90.00;;;;;;4871664;29;20645;-68
2021/09/03 05:57:41;;;;;;;10.90;2.10;;;14.50;90.10;;;;;;4875729;29;20070;-68
2021/09/03 06:00:08;;;;;;;7.75;1.95;;;14.50;90.10;;;;;;4875677;29;20037;-68
2021/09/03 06:02:34;;;;;;;7.97;2.05;;;14.50;90.10;;;;;;4874422;29;20092;-68
2021/09/03 06:05:01;;;;;;;7.82;1.60;;;14.60;90.20;;;;;;4872978;29;20017;-68
2021/09/03 06:07:27;;;;;;;8.77;2.38;;;14.60;90.10;;;;;;4873105;29;20092;-68
2021/09/03 06:10:11;;;;;;;6.82;1.67;;;14.60;90.20;;;;;;4872786;29;20096;-68
2021/09/03 06:12:38;;;;;;;4.57;1.73;;;14.60;90.20;;;;;;4855637;29;20030;-68
2021/09/03 06:15:09;;;;;;;10.38;1.60;;;14.60;90.20;;;;;;4874502;29;20063;-68
2021/09/03 06:17:36;;;;;;;11.23;3.08;;;14.60;90.10;;;;;;4867884;29;20025;-69
2021/09/03 06:20:06;;;;;;;10.48;2.58;;;14.60;90.20;;;;;;4874442;29;20044;-67
2021/09/03 06:22:33;;;;;;;10.57;1.67;;;14.70;90.20;;;;;;4872271;29;20112;-67
2021/09/03 06:24:59;;;;;;;14.60;3.53;;;14.70;90.20;;;;;;4859843;29;20029;-69
2021/09/03 06:27:26;;;;;;;6.65;1.95;;;14.70;90.20;;;;;;4873214;29;20034;-68
2021/09/03 06:29:53;;;;;;;6.78;2.67;;;14.70;90.30;;;;;;4874942;29;20036;-70
2021/09/03 06:32:25;;;;;;;7.90;2.25;;;14.80;90.20;;;;;;4856957;29;20068;-70
2021/09/03 06:34:54;;;;;;;5.18;2.25;;;14.80;90.20;;;;;;4874574;29;20020;-67
2021/09/03 06:37:21;;;;;;;8.52;3.28;;;14.80;90.20;;;;;;4872859;29;20033;-71
2021/09/03 06:39:48;;;;;;;8.18;2.50;;;14.80;90.20;;;;;;4874108;29;20087;-70
2021/09/03 06:42:16;;;;;;;10.30;2.45;;;14.90;90.40;;;;;;4873571;29;20104;-71
2021/09/03 06:44:43;;;;;;;6.20;1.40;;;14.90;90.30;;;;;;4873941;29;20043;-71
2021/09/03 06:47:11;;;;;;;6.57;2.42;;;15.00;90.30;;;;;;4875019;29;20029;-71
2021/09/03 06:49:39;;;;;;;9.85;2.97;;;15.10;90.30;;;;;;4854213;29;20048;-71
2021/09/03 06:52:07;;;;;;;8.10;3.03;;;15.10;90.10;;;;;;4873969;29;20100;-70
2021/09/03 06:54:35;;;;;;;8.43;1.90;;;15.20;90.00;;;;;;4872979;29;20025;-70
2021/09/03 06:57:03;;;;;;;11.20;2.35;;;15.20;89.70;;;;;;4858137;29;20065;-70
2021/09/03 06:59:29;;;;;;;9.10;1.95;;;15.30;89.40;;;;;;4870462;29;20120;-71
2021/09/03 07:01:57;;;;;;;9.23;2.13;;;15.30;89.20;;;;;;4873648;29;20033;-70
2021/09/03 07:04:24;;;;;;;13.02;3.17;;;15.40;88.80;;;;;;4872578;29;20033;-70
2021/09/03 07:06:51;;;;;;;8.88;2.00;;;15.40;88.30;;;;;;4872997;29;20473;-68
2021/09/03 07:09:18;;;;;;;9.57;2.20;;;15.40;88.10;;;;;;4872243;29;20389;-68
2021/09/03 07:11:45;;;;;;;6.57;1.40;;;15.40;88.20;;;;;;4874087;29;20017;-68
2021/09/03 07:14:12;;;;;;;9.63;1.75;;;15.40;88.10;;;;;;4878525;29;20021;-67
2021/09/03 07:16:39;;;;;;;6.88;1.85;;;15.40;87.80;;;;;;4881149;29;20386;-68
2021/09/03 07:19:05;;;;;;;9.80;1.90;;;15.40;87.70;;;;;;4875239;29;20020;-70
2021/09/03 07:21:32;;;;;;;4.80;1.77;;;15.40;87.80;;;;;;4862962;29;20044;-68
2021/09/03 07:23:59;;;;;;;11.98;3.78;;;15.40;87.90;;;;;;4875480;29;20048;-71
2021/09/03 07:26:27;;;;;;;6.70;1.80;;;15.50;87.80;;;;;;4873120;29;20025;-69
2021/09/03 07:28:53;;;;;;;7.57;2.85;;;15.50;87.70;;;;;;4876201;29;20021;-69
2021/09/03 07:31:37;;;;;;;11.65;1.92;;;15.50;87.70;;;;;;4880513;29;20135;-70
2021/09/03 07:34:03;;;;;;;11.18;3.28;;;15.50;87.40;;;;;;4856131;29;20112;-70
2021/09/03 07:36:30;;;;;;;11.13;2.13;;;15.50;87.50;;;;;;4871539;29;20021;-69
2021/09/03 07:38:56;;;;;;;9.52;2.67;;;15.60;87.50;;;;;;4877735;29;20496;-68
2021/09/03 07:41:23;;;;;;;9.10;2.00;;;15.60;87.40;;;;;;4875574;29;20385;-67
2021/09/03 07:43:50;;;;;;;9.07;1.92;;;15.60;87.20;;;;;;4878616;29;20699;-67
2021/09/03 07:46:17;;;;;;;5.90;1.60;;;15.70;87.30;;;;;;4874924;29;20025;-67
2021/09/03 07:48:43;;;;;;;9.05;2.30;;;15.80;87.30;;;;;;4876319;29;20041;-67
2021/09/03 07:51:10;;;;;;;6.43;1.38;;;15.80;86.80;;;;;;4874967;29;20437;-67
2021/09/03 07:53:36;;;;;;;5.82;1.40;;;15.80;86.50;;;;;;4873286;29;20057;-69
2021/09/03 07:56:04;;;;;;;5.55;1.48;;;15.80;86.90;;;;;;4876503;29;20430;-68
2021/09/03 07:58:31;;;;;;;7.57;1.30;;;15.80;86.20;;;;;;4875181;29;20048;-69
2021/09/03 08:01:00;;;;;;;6.20;1.05;;;15.90;86.10;;;;;;4860605;29;20489;-69
2021/09/03 08:03:54;;;;;;;11.93;1.85;;;15.90;85.90;;;;;;4873095;29;20060;-68
2021/09/03 08:06:21;;;;;;;5.20;1.25;;;16.00;85.30;;;;;;4859223;29;20511;-68
2021/09/03 08:08:47;;;;;;;7.05;1.05;;;16.10;85.30;;;;;;4859252;29;20120;-68
2021/09/03 08:11:14;;;;;;;7.20;1.40;;;16.20;85.10;;;;;;4866919;29;20033;-68
2021/09/03 08:13:41;;;;;;;5.68;1.05;;;16.30;85.00;;;;;;4877943;29;20044;-68
2021/09/03 08:16:07;;;;;;;10.13;2.70;;;16.30;84.50;;;;;;4872382;29;20318;-68
2021/09/03 08:18:34;;;;;;;6.03;1.10;;;16.30;83.80;;;;;;4876295;29;20366;-68
2021/09/03 08:21:00;;;;;;;8.90;1.70;;;16.40;83.90;;;;;;4879324;29;20037;-68
2021/09/03 08:23:28;;;;;;;4.00;0.90;;;16.40;83.60;;;;;;4875359;29;20629;-67
2021/09/03 08:25:54;;;;;;;3.08;0.90;;;16.50;83.70;;;;;;4876648;29;20025;-67
2021/09/03 08:28:21;;;;;;;6.88;1.10;;;16.60;83.50;;;;;;4876065;29;20021;-67
2021/09/03 08:30:47;;;;;;;6.95;1.20;;;16.60;83.20;;;;;;4875931;29;20069;-67
2021/09/03 08:33:14;;;;;;;11.60;7.47;;;16.70;83.00;;;;;;4874052;29;20108;-68
2021/09/03 08:35:40;;;;;;;13.70;6.47;;;16.80;82.30;;;;;;4872640;29;20120;-68
2021/09/03 08:38:06;;;;;;;9.90;3.65;;;16.90;81.40;;;;;;4865329;29;20082;-68
2021/09/03 08:40:34;;;;;;;5.28;2.13;;;16.90;81.10;;;;;;4866791;29;20069;-68
2021/09/03 08:43:00;;;;;;;6.38;1.45;;;17.00;81.20;;;;;;4870212;29;20021;-68
2021/09/03 08:45:27;;;;;;;6.38;1.58;;;17.10;80.70;;;;;;4848139;29;20043;-68
2021/09/03 08:47:54;;;;;;;7.57;1.45;;;17.20;80.20;;;;;;4872746;29;20385;-68
2021/09/03 08:50:21;;;;;;;5.40;1.55;;;17.20;80.20;;;;;;4870969;29;20021;-68
2021/09/03 08:52:49;;;;;;;3.97;1.17;;;17.10;79.90;;;;;;4871089;29;20461;-69
2021/09/03 08:55:17;;;;;;;13.88;2.92;;;17.10;79.70;;;;;;4873225;29;20029;-68
2021/09/03 08:57:44;;;;;;;7.65;2.38;;;17.00;80.40;;;;;;4869793;29;20025;-68
2021/09/03 09:00:37;;;;;;;7.90;1.80;;;17.00;80.60;;;;;;4866333;29;20487;-71
2021/09/03 09:03:05;;;;;;;9.57;2.20;;;17.10;80.50;;;;;;4859508;29;20120;-71
2021/09/03 09:05:47;;;;;;;5.20;1.73;;;17.10;80.10;;;;;;4869943;29;20018;-69
2021/09/03 09:08:13;;;;;;;7.28;2.50;;;17.10;80.40;;;;;;4864974;29;20088;-69
2021/09/03 09:11:04;;;;;;;5.60;1.13;;;17.10;79.90;;;;;;4867107;29;20036;-70
2021/09/03 09:13:34;;;;;;;10.07;2.05;;;17.20;79.80;;;;;;4869930;29;20043;-69
2021/09/03 09:16:12;;;;;;;5.30;1.23;;;17.30;79.80;;;;;;4873668;29;20081;-69
2021/09/03 09:18:43;;;;;;;6.28;1.60;;;17.40;79.30;;;;;;4876956;29;20031;-69
2021/09/03 09:21:30;;;;;;;7.95;1.27;;;17.40;78.80;;;;;;4868146;29;20081;-69
2021/09/03 09:24:13;;;;;;;7.50;1.55;;;17.50;78.20;;;;;;4866216;29;20081;-69
2021/09/03 09:26:50;;;;;;;8.82;1.50;;;17.50;78.40;;;;;;4870577;29;20066;-69
2021/09/03 09:29:35;;;;;;;4.88;1.58;;;17.60;78.30;;;;;;4870668;29;20108;-68
2021/09/03 09:32:07;;;;;;;8.32;1.48;;;17.60;76.60;;;;;;4872895;29;20017;-69
2021/09/03 09:34:45;;;;;;;9.65;1.95;;;17.40;75.30;;;;;;4875000;29;20035;-68
2021/09/03 09:37:17;;;;;;;7.80;2.42;;;17.40;76.90;;;;;;4872210;29;20016;-70
2021/09/03 09:39:51;;;;;;;12.23;1.77;;;17.30;78.70;;;;;;4873027;29;20033;-70
2021/09/03 09:42:30;;;;;;;7.05;1.30;;;17.10;80.10;;;;;;4871268;29;20029;-70
2021/09/03 09:45:04;;;;;;;2.70;0.95;;;16.90;80.80;;;;;;4873436;29;20515;-70
2021/09/03 09:47:31;;;;;;;9.05;2.25;;;16.70;82.80;;;;;;4876783;29;20044;-71
2021/09/03 09:49:57;;;;;;;9.05;1.48;;;16.60;84.10;;;;;;4873878;29;20156;-71
2021/09/03 09:52:37;;;;;;;7.18;2.63;;;16.40;85.20;;;;;;4873038;29;20048;-70
2021/09/03 09:55:05;;;;;;;10.23;1.45;;;16.30;83.70;;;;;;4866157;29;20063;-70
2021/09/03 09:57:43;;;;;;;9.18;2.13;;;16.00;85.60;;;;;;5035839;28;20457;-68
2021/09/03 10:00:10;;;;;;;11.10;2.97;;;15.70;87.50;;;;;;5042207;28;20100;-67
2021/09/03 10:02:38;;;;;;;9.45;3.53;;;15.60;89.80;;;;;;5044458;28;20427;-68
2021/09/03 10:05:05;;;;;;;10.82;2.97;;;15.60;89.80;;;;;;5043870;28;20103;-68
2021/09/03 10:07:32;;;;;;;7.32;2.10;;;15.60;90.30;;;;;;5042335;28;20488;-68
2021/09/03 10:09:59;;;;;;;10.43;2.30;;;15.60;90.20;;;;;;5041631;28;20096;-69
2021/09/03 10:12:26;;;;;;;7.47;2.78;;;15.60;90.20;;;;;;5040122;28;20017;-68
2021/09/03 10:14:52;;;;;;;7.88;2.28;;;15.70;90.40;;;;;;5041836;28;20021;-67
2021/09/03 10:17:20;;;;;;;17.63;11.23;;;15.60;90.30;;;;;;5039036;28;20080;-68
2021/09/03 10:19:53;;;;;;;8.43;2.83;;;15.70;90.50;;;;;;5040698;28;20120;-68
2021/09/03 10:22:22;;;;;;;5.35;1.90;;;15.70;90.80;;;;;;5039278;28;20021;-67
2021/09/03 10:25:06;;;;;;;6.07;2.55;;;15.70;90.30;;;;;;5040521;28;20029;-67
2021/09/03 10:27:33;;;;;;;7.60;1.30;;;15.70;90.30;;;;;;5041190;28;20508;-70
2021/09/03 10:30:16;;;;;;;7.47;1.80;;;15.70;90.00;;;;;;5040178;28;20043;-68
2021/09/03 10:32:43;;;;;;;7.18;1.17;;;15.70;90.10;;;;;;5038577;28;20049;-68
2021/09/03 10:35:22;;;;;;;7.32;1.88;;;15.70;89.30;;;;;;5033768;28;20097;-68
2021/09/03 10:37:49;;;;;;;10.57;2.10;;;15.70;88.90;;;;;;5041743;28;20033;-68
2021/09/03 10:40:34;;;;;;;5.05;1.45;;;15.70;88.80;;;;;;5037922;28;20536;-68
2021/09/03 10:43:00;;;;;;;11.45;3.67;;;15.70;88.60;;;;;;5041063;28;20018;-68
2021/09/03 10:45:43;;;;;;;6.82;2.17;;;15.70;88.90;;;;;;5044178;28;20476;-67
2021/09/03 10:48:16;;;;;;;11.07;1.60;;;15.70;87.80;;;;;;5044694;28;20025;-67
2021/09/03 10:50:57;;;;;;;11.52;3.67;;;15.80;87.80;;;;;;5035810;28;20020;-68
2021/09/03 10:53:33;;;;;;;6.53;1.92;;;15.80;88.50;;;;;;5039857;28;20053;-68
2021/09/03 10:56:17;;;;;;;9.77;1.95;;;15.90;88.40;;;;;;5039578;28;20037;-68
2021/09/03 10:58:45;;;;;;;5.82;2.60;;;15.90;87.70;;;;;;5042060;28;20024;-68
2021/09/03 11:01:12;;;;;;;6.72;2.40;;;15.90;87.20;;;;;;5039720;28;20013;-68
2021/09/03 11:04:11;;;;;;;14.07;2.70;;;16.00;87.50;;;;;;5041647;28;20052;-68
2021/09/03 11:06:56;;;;;;;8.57;2.65;;;16.10;87.00;;;;;;5042530;28;20036;-68
2021/09/03 11:09:28;;;;;;;10.98;5.53;;;16.10;87.30;;;;;;5030620;28;20021;-69
2021/09/03 11:11:57;;;;;;;8.75;3.13;;;16.10;85.90;;;;;;5026674;28;20013;-68
2021/09/03 11:14:28;;;;;;;6.20;1.45;;;16.10;85.00;;;;;;5031382;28;20532;-69
2021/09/03 11:16:57;;;;;;;8.25;2.05;;;16.20;85.30;;;;;;5027713;28;20075;-68
2021/09/03 11:19:39;;;;;;;9.32;2.78;;;16.30;85.80;;;;;;5031855;28;20100;-69
2021/09/03 11:22:17;;;;;;;11.80;2.33;;;16.40;85.60;;;;;;5028576;28;20063;-69
2021/09/03 11:24:52;;;;;;;8.73;2.75;;;16.40;85.00;;;;;;5029708;28;20078;-69
2021/09/03 11:27:22;;;;;;;7.80;2.83;;;16.60;84.80;;;;;;5030466;28;20037;-69
2021/09/03 11:29:52;;;;;;;12.48;2.58;;;16.70;84.60;;;;;;5029566;28;20030;-69
2021/09/03 11:32:22;;;;;;;10.23;2.45;;;16.80;84.00;;;;;;5029836;28;20524;-69
2021/09/03 11:34:52;;;;;;;9.75;2.25;;;17.00;83.40;;;;;;5028957;28;20021;-69
2021/09/03 11:37:31;;;;;;;8.93;2.35;;;17.10;81.70;;;;;;5023543;28;20065;-69
2021/09/03 11:40:17;;;;;;;9.80;1.88;;;17.00;79.40;;;;;;5028279;28;20086;-69
2021/09/03 11:42:48;;;;;;;8.35;1.67;;;17.00;80.00;;;;;;5028707;28;20021;-69
2021/09/03 11:45:24;;;;;;;9.25;2.47;;;16.90;81.10;;;;;;5028786;28;20108;-69
2021/09/03 11:47:57;;;;;;;9.02;2.05;;;17.00;80.90;;;;;;5027963;28;20476;-69
2021/09/03 11:50:29;;;;;;;5.97;1.52;;;17.10;80.20;;;;;;5030474;28;20021;-69
2021/09/03 11:52:57;;;;;;;6.22;2.22;;;17.10;80.40;;;;;;5028030;28;20021;-69
2021/09/03 11:55:24;;;;;;;13.45;5.85;;;17.20;80.70;;;;;;5028678;28;20023;-67
2021/09/03 11:58:02;;;;;;;11.82;3.35;;;17.30;80.30;;;;;;5030826;28;20026;-69
2021/09/03 12:00:43;;;;;;;10.90;3.42;;;17.30;80.20;;;;;;5028151;28;20056;-69
2021/09/03 12:03:12;;;;;;;12.40;2.00;;;17.30;80.50;;;;;;5027625;28;20041;-69
2021/09/03 12:05:42;;;;;;;6.97;1.80;;;17.40;80.30;;;;;;5027184;28;21577;-69
2021/09/03 12:08:17;;;;;;;9.20;1.92;;;17.60;79.70;;;;;;5030204;28;20412;-69
2021/09/03 12:10:55;;;;;;;7.45;1.67;;;17.80;77.70;;;;;;5029329;28;20108;-69
2021/09/03 12:13:36;;;;;;;9.30;3.72;;;17.80;75.60;;;;;;5026499;28;20065;-68
2021/09/03 12:16:17;;;;;;;6.82;1.80;;;17.90;76.00;;;;;;5028358;28;20583;-69
2021/09/03 12:18:52;;;;;;;6.25;2.42;;;18.20;75.90;;;;;;5026716;28;20069;-69
2021/09/03 12:21:23;;;;;;;8.52;2.75;;;18.40;74.20;;;;;;5028895;28;20026;-69
2021/09/03 12:23:59;;;;;;;6.63;2.45;;;18.60;73.70;;;;;;5026231;28;20053;-68
2021/09/03 12:26:51;;;;;;;5.78;1.60;;;18.60;71.50;;;;;;5026321;28;20512;-69
2021/09/03 12:29:23;;;;;;;8.20;1.40;;;18.70;71.10;;;;;;5029015;28;20021;-68
2021/09/03 12:31:55;;;;;;;9.85;5.28;;;18.50;71.70;;;;;;5027244;28;20788;-68
2021/09/03 12:34:27;;;;;;;3.75;1.90;;;18.40;72.40;;;;;;5027687;28;20681;-70
2021/09/03 12:37:04;;;;;;;7.90;1.55;;;18.40;71.50;;;;;;5030085;28;20041;-70
2021/09/03 12:39:32;;;;;;;8.90;1.60;;;18.50;71.20;;;;;;5027043;28;20021;-70
2021/09/03 12:42:03;;;;;;;9.45;2.05;;;18.40;71.40;;;;;;5030139;28;20023;-69
2021/09/03 12:44:33;;;;;;;6.85;1.90;;;18.40;71.20;;;;;;5029059;28;20037;-69
2021/09/03 12:47:04;;;;;;;11.82;2.03;;;18.40;72.50;;;;;;5030153;28;20013;-69
2021/09/03 12:49:34;;;;;;;11.30;2.30;;;18.30;73.40;;;;;;5027792;28;20028;-69
2021/09/03 12:52:07;;;;;;;7.05;1.65;;;18.10;74.50;;;;;;5029246;28;20009;-69